createdAt,value
2022-11-05T00:01:12.775Z,99.90
2022-11-05T00:03:58.064Z,99.90
2022-11-05T00:06:43.474Z,99.90
2022-11-05T00:09:29.572Z,99.90
2022-11-05T00:12:21.078Z,99.90
2022-11-05T00:15:06.603Z,99.90
2022-11-05T00:17:33.643Z,99.90
2022-11-05T00:20:00.387Z,99.90
2022-11-05T00:22:46.353Z,99.90
2022-11-05T00:25:16.894Z,99.90
2022-11-05T00:27:52.135Z,99.90
2022-11-05T00:30:23.880Z,99.90
2022-11-05T00:32:51.990Z,99.90
2022-11-05T00:35:20.873Z,99.90
2022-11-05T00:37:50.229Z,1.00
2022-11-05T00:40:17.534Z,1.00
2022-11-05T00:43:02.777Z,1.00
2022-11-05T00:45:31.032Z,1.00
2022-11-05T00:48:16.249Z,1.00
2022-11-05T00:50:42.974Z,1.00
2022-11-05T00:53:10.137Z,1.00
2022-11-05T00:55:39.697Z,1.00
2022-11-05T00:58:09.757Z,1.00
2022-11-05T01:01:16.824Z,1.00
2022-11-05T01:04:08.870Z,1.00
2022-11-05T01:06:38.250Z,1.00
2022-11-05T01:09:05.179Z,1.00
2022-11-05T01:11:35.369Z,1.00
2022-11-05T01:14:13.466Z,1.00
2022-11-05T01:16:43.204Z,1.00
2022-11-05T01:19:10.761Z,1.00
2022-11-05T01:21:38.054Z,1.00
2022-11-05T01:24:07.395Z,1.00
2022-11-05T01:26:34.345Z,1.00
2022-11-05T01:29:08.713Z,1.00
2022-11-05T01:31:35.764Z,1.00
2022-11-05T01:34:02.540Z,1.00
2022-11-05T01:36:29.273Z,1.00
2022-11-05T01:38:56.038Z,1.00
2022-11-05T01:41:22.874Z,1.00
2022-11-05T01:43:57.298Z,1.00
2022-11-05T01:46:29.713Z,1.00
2022-11-05T01:49:03.366Z,1.00
2022-11-05T01:51:31.133Z,1.00
2022-11-05T01:54:03.000Z,1.00
2022-11-05T01:56:40.972Z,1.00
2022-11-05T01:59:13.807Z,1.00
2022-11-05T02:01:40.746Z,1.00
2022-11-05T02:04:12.634Z,1.00
2022-11-05T02:06:46.316Z,1.00
2022-11-05T02:09:25.122Z,1.00
2022-11-05T02:11:52.140Z,1.00
2022-11-05T02:14:18.984Z,1.00
2022-11-05T02:17:32.979Z,1.00
2022-11-05T02:20:52.739Z,1.00
2022-11-05T02:23:40.603Z,1.00
2022-11-05T02:26:51.796Z,1.00
2022-11-05T02:29:37.300Z,1.00
2022-11-05T02:32:25.283Z,1.00
2022-11-05T02:34:56.864Z,1.00
2022-11-05T02:37:35.562Z,1.00
2022-11-05T02:40:28.941Z,1.00
2022-11-05T02:43:15.127Z,1.00
2022-11-05T02:46:01.633Z,1.00
2022-11-05T02:48:43.950Z,1.00
2022-11-05T02:51:23.582Z,1.00
2022-11-05T02:54:17.008Z,1.00
2022-11-05T02:56:48.343Z,1.00
2022-11-05T02:59:15.051Z,1.00
2022-11-05T03:01:43.712Z,1.00
2022-11-05T03:04:13.155Z,1.00
2022-11-05T03:06:58.533Z,1.00
2022-11-05T03:09:46.851Z,1.00
2022-11-05T03:12:50.529Z,1.00
2022-11-05T03:15:35.765Z,1.00
2022-11-05T03:18:12.957Z,1.00
2022-11-05T03:20:57.030Z,1.00
2022-11-05T03:23:43.983Z,1.00
2022-11-05T03:26:31.437Z,1.00
2022-11-05T03:29:13.073Z,1.00
2022-11-05T03:31:41.336Z,1.00
2022-11-05T03:34:11.634Z,1.00
2022-11-05T03:36:42.798Z,1.00
2022-11-05T03:39:13.973Z,1.00
2022-11-05T03:41:45.528Z,1.00
2022-11-05T03:44:18.508Z,1.00
2022-11-05T03:46:49.395Z,1.00
2022-11-05T03:49:21.022Z,1.00
2022-11-05T03:52:01.516Z,1.00
2022-11-05T03:54:28.613Z,1.00
2022-11-05T03:57:10.647Z,1.00
2022-11-05T03:59:45.519Z,1.00
2022-11-05T04:02:15.083Z,1.00
2022-11-05T04:04:42.193Z,1.00
2022-11-05T04:07:31.382Z,1.00
2022-11-05T04:10:17.117Z,1.00
2022-11-05T04:13:02.704Z,1.00
2022-11-05T04:15:29.724Z,1.00
2022-11-05T04:17:58.893Z,1.00
2022-11-05T04:20:44.740Z,1.00
2022-11-05T04:23:30.022Z,1.00
2022-11-05T04:25:56.748Z,1.00
2022-11-05T04:28:43.438Z,1.00
2022-11-05T04:31:10.101Z,1.00
2022-11-05T04:33:36.789Z,1.00
2022-11-05T04:36:03.640Z,1.00
2022-11-05T04:38:30.319Z,1.00
2022-11-05T04:41:13.445Z,1.00
2022-11-05T04:43:40.169Z,1.00
2022-11-05T04:46:06.954Z,1.00
2022-11-05T04:48:34.146Z,1.00
2022-11-05T04:51:01.261Z,1.00
2022-11-05T04:53:28.099Z,1.00
2022-11-05T04:55:55.105Z,1.00
2022-11-05T04:58:21.827Z,1.00
2022-11-05T05:00:49.929Z,1.00
2022-11-05T05:03:16.707Z,1.00
2022-11-05T05:05:43.367Z,1.00
2022-11-05T05:08:10.053Z,2.80
2022-11-05T05:10:36.758Z,20.50
2022-11-05T05:13:03.490Z,41.80
2022-11-05T05:15:30.684Z,67.00
2022-11-05T05:17:57.407Z,92.20
2022-11-05T05:20:42.664Z,99.90
2022-11-05T05:23:10.877Z,99.90
2022-11-05T05:25:37.817Z,99.90
2022-11-05T05:28:04.662Z,99.90
2022-11-05T05:30:31.354Z,99.90
2022-11-05T05:33:02.735Z,99.90
2022-11-05T05:35:29.901Z,99.90
2022-11-05T05:37:56.770Z,99.90
2022-11-05T05:40:24.102Z,99.90
2022-11-05T05:42:56.821Z,99.90
2022-11-05T05:45:23.509Z,99.90
2022-11-05T05:47:50.205Z,99.90
2022-11-05T05:50:16.927Z,99.90
2022-11-05T05:52:51.811Z,99.90
2022-11-05T05:55:18.465Z,99.90
2022-11-05T05:57:45.302Z,99.90
2022-11-05T06:00:13.031Z,99.90
2022-11-05T06:02:40.075Z,99.90
2022-11-05T06:05:07.251Z,99.90
2022-11-05T06:07:37.176Z,99.90
2022-11-05T06:10:04.882Z,99.90
2022-11-05T06:12:31.913Z,99.90
2022-11-05T06:14:58.663Z,99.90
2022-11-05T06:17:25.362Z,99.90
2022-11-05T06:19:52.009Z,99.90
2022-11-05T06:22:18.696Z,99.90
2022-11-05T06:24:45.405Z,99.90
2022-11-05T06:27:12.193Z,1.00
2022-11-05T06:29:38.880Z,1.00
2022-11-05T06:32:05.602Z,1.00
2022-11-05T06:34:32.283Z,1.00
2022-11-05T06:36:59.766Z,1.00
2022-11-05T06:39:26.461Z,1.00
2022-11-05T06:44:39.959Z,1.00
2022-11-05T06:47:06.782Z,1.00
2022-11-05T06:49:33.491Z,1.00
2022-11-05T06:52:00.268Z,1.00
2022-11-05T06:54:27.124Z,1.00
2022-11-05T06:56:54.963Z,1.00
2022-11-05T06:59:21.666Z,1.00
2022-11-05T07:01:48.454Z,1.00
2022-11-05T07:04:15.332Z,1.00
2022-11-05T07:06:42.318Z,1.00
2022-11-05T07:09:09.270Z,1.00
2022-11-05T07:11:36.158Z,1.00
2022-11-05T07:14:02.945Z,1.00
2022-11-05T07:16:29.693Z,1.00
2022-11-05T07:18:56.399Z,1.00
2022-11-05T07:21:23.151Z,1.00
2022-11-05T07:23:49.954Z,1.00
2022-11-05T07:26:18.454Z,1.00
2022-11-05T07:28:45.383Z,1.00
2022-11-05T07:31:12.087Z,1.00
2022-11-05T07:33:38.892Z,1.00
2022-11-05T07:36:05.915Z,1.00
2022-11-05T07:38:32.723Z,1.00
2022-11-05T07:41:00.358Z,1.00
2022-11-05T07:43:27.642Z,1.00
2022-11-05T07:45:54.443Z,1.00
2022-11-05T07:48:21.553Z,1.00
2022-11-05T07:50:51.926Z,1.00
2022-11-05T07:53:20.608Z,1.00
2022-11-05T07:55:47.521Z,1.00
2022-11-05T07:58:14.498Z,1.00
2022-11-05T08:00:41.337Z,1.00
2022-11-05T08:03:10.729Z,1.00
2022-11-05T08:05:40.350Z,1.00
2022-11-05T08:08:08.779Z,1.00
2022-11-05T08:10:59.127Z,1.00
2022-11-05T08:13:24.145Z,1.00
2022-11-05T08:16:05.445Z,1.00
2022-11-05T08:18:40.487Z,1.00
2022-11-05T08:21:07.449Z,1.00
2022-11-05T08:23:34.199Z,1.00
2022-11-05T08:26:07.280Z,1.00
2022-11-05T08:28:34.211Z,1.00
2022-11-05T08:31:03.799Z,1.00
2022-11-05T08:33:31.448Z,1.00
2022-11-05T08:36:02.232Z,1.00
2022-11-05T08:38:28.967Z,1.00
2022-11-05T08:40:57.875Z,1.00
2022-11-05T08:43:24.912Z,1.00
2022-11-05T08:45:51.862Z,1.00
2022-11-05T08:48:19.370Z,99.90
2022-11-05T08:50:47.366Z,99.90
2022-11-05T08:53:15.315Z,99.90
2022-11-05T08:55:42.419Z,1.00
2022-11-05T08:58:17.294Z,1.00
2022-11-05T09:00:49.305Z,1.00
2022-11-05T09:03:16.408Z,99.90
2022-11-05T09:05:43.351Z,99.90
2022-11-05T09:08:13.421Z,99.90
2022-11-05T09:10:41.015Z,99.90
2022-11-05T09:13:11.714Z,99.90
2022-11-05T09:15:41.886Z,99.90
2022-11-05T09:18:12.845Z,99.90
2022-11-05T09:20:40.103Z,99.90
2022-11-05T09:23:08.275Z,99.90
2022-11-05T09:25:35.458Z,99.90
2022-11-05T09:28:16.392Z,99.90
2022-11-05T09:30:51.456Z,99.90
2022-11-05T09:33:24.076Z,99.90
2022-11-05T09:35:52.496Z,51.00
2022-11-05T09:38:19.583Z,23.20
2022-11-05T09:41:07.238Z,1.00
2022-11-05T09:43:43.442Z,1.00
2022-11-05T09:46:36.379Z,1.00
2022-11-05T09:49:07.379Z,1.00
2022-11-05T09:51:36.049Z,1.00
2022-11-05T09:54:04.099Z,1.00
2022-11-05T09:56:33.797Z,1.00
2022-11-05T09:59:06.364Z,1.00
2022-11-05T10:01:38.067Z,1.00
2022-11-05T10:04:12.641Z,1.00
2022-11-05T10:07:03.585Z,99.90
2022-11-05T10:10:01.853Z,99.90
2022-11-05T10:12:45.376Z,99.90
2022-11-05T10:15:17.857Z,99.90
2022-11-05T10:18:02.842Z,99.90
2022-11-05T10:20:34.521Z,99.90
2022-11-05T10:23:21.522Z,99.90
2022-11-05T10:25:56.597Z,99.90
2022-11-05T10:28:26.273Z,99.90
2022-11-05T10:31:04.144Z,99.90
2022-11-05T10:33:33.891Z,99.90
2022-11-05T10:36:05.323Z,99.90
2022-11-05T10:38:32.874Z,99.90
2022-11-05T10:40:59.566Z,99.90
2022-11-05T10:43:40.795Z,99.90
2022-11-05T10:46:33.816Z,99.90
2022-11-05T10:49:31.616Z,99.90
2022-11-05T10:52:01.948Z,99.90
2022-11-05T10:54:34.815Z,99.90
2022-11-05T10:57:21.540Z,99.90
2022-11-05T10:59:48.276Z,99.90
2022-11-05T11:02:25.898Z,99.90
2022-11-05T11:04:54.774Z,99.90
2022-11-05T11:07:25.974Z,99.90
2022-11-05T11:09:53.374Z,99.90
2022-11-05T11:12:38.271Z,99.90
2022-11-05T11:15:15.276Z,99.90
2022-11-05T11:17:42.132Z,99.90
2022-11-05T11:20:18.602Z,99.90
2022-11-05T11:23:14.377Z,99.90
2022-11-05T11:25:50.891Z,99.90
2022-11-05T11:28:23.740Z,99.90
2022-11-05T11:31:03.437Z,99.90
2022-11-05T11:33:31.747Z,99.90
2022-11-05T11:35:59.173Z,97.50
2022-11-05T11:38:31.139Z,93.00
2022-11-05T11:41:09.239Z,99.90
2022-11-05T11:43:39.909Z,90.10
2022-11-05T11:46:26.189Z,89.60
2022-11-05T11:48:53.114Z,80.30
2022-11-05T11:51:31.817Z,60.20
2022-11-05T11:54:00.559Z,64.20
2022-11-05T11:56:28.939Z,35.00
2022-11-05T11:58:57.376Z,29.10
2022-11-05T12:02:01.435Z,23.70
2022-11-05T12:05:03.407Z,25.50
2022-11-05T12:07:48.338Z,22.70
2022-11-05T12:10:42.636Z,23.50
2022-11-05T12:13:18.733Z,18.70
2022-11-05T12:15:57.543Z,11.40
2022-11-05T12:18:27.132Z,3.10
2022-11-05T12:21:40.696Z,1.00
2022-11-05T12:24:31.029Z,1.00
2022-11-05T12:27:03.728Z,1.00
2022-11-05T12:30:02.446Z,1.00
2022-11-05T12:32:54.217Z,1.00
2022-11-05T12:35:36.120Z,1.00
2022-11-05T12:38:45.941Z,1.00
2022-11-05T12:41:37.524Z,1.00
2022-11-05T12:44:37.432Z,1.00
2022-11-05T12:47:33.265Z,1.00
2022-11-05T12:50:08.621Z,1.00
2022-11-05T12:52:44.256Z,1.00
2022-11-05T12:55:19.222Z,1.00
2022-11-05T12:57:51.518Z,1.00
2022-11-05T13:00:24.365Z,1.00
2022-11-05T13:03:05.121Z,1.00
2022-11-05T13:05:45.151Z,1.00
2022-11-05T13:08:18.828Z,1.00
2022-11-05T13:10:57.141Z,1.00
2022-11-05T13:13:54.346Z,1.00
2022-11-05T13:16:35.552Z,1.00
2022-11-05T13:19:20.544Z,1.00
2022-11-05T13:21:56.146Z,1.00
2022-11-05T13:24:31.078Z,1.00
2022-11-05T13:27:01.136Z,1.00
2022-11-05T13:29:35.226Z,1.00
2022-11-05T13:32:11.946Z,1.00
2022-11-05T13:34:38.710Z,1.00
2022-11-05T13:37:26.479Z,1.00
2022-11-05T13:40:00.590Z,1.00
2022-11-05T13:42:27.379Z,1.00
2022-11-05T13:45:21.959Z,1.00
2022-11-05T13:47:51.709Z,1.00
2022-11-05T13:50:53.346Z,1.00
2022-11-05T13:53:49.611Z,1.00
2022-11-05T13:56:31.361Z,1.00
2022-11-05T13:59:19.691Z,1.00
2022-11-05T14:02:02.657Z,1.00
2022-11-05T14:04:34.416Z,1.00
2022-11-05T14:07:19.454Z,1.00
2022-11-05T14:09:51.037Z,1.00
2022-11-05T14:12:30.625Z,1.00
2022-11-05T14:15:21.100Z,1.00
2022-11-05T14:18:06.327Z,1.00
2022-11-05T14:20:33.038Z,1.00
2022-11-05T14:23:17.892Z,1.00
2022-11-05T14:25:44.575Z,1.00
2022-11-05T14:28:34.573Z,1.00
2022-11-05T14:31:19.402Z,4.70
2022-11-05T14:33:54.960Z,1.00
2022-11-05T14:36:21.603Z,1.00
2022-11-05T14:38:54.363Z,1.00
2022-11-05T14:41:21.819Z,1.00
2022-11-05T14:43:59.523Z,1.00
2022-11-05T14:46:41.406Z,1.00
2022-11-05T14:49:17.652Z,1.00
2022-11-05T14:51:48.089Z,1.00
2022-11-05T14:54:20.805Z,1.00
2022-11-05T14:56:59.399Z,1.00
2022-11-05T14:59:28.946Z,1.00
2022-11-05T15:02:09.684Z,1.00
2022-11-05T15:04:37.655Z,1.00
2022-11-05T15:07:04.378Z,1.00
2022-11-05T15:09:44.737Z,1.00
2022-11-05T15:12:19.826Z,1.00
2022-11-05T15:15:00.549Z,1.00
2022-11-05T15:17:48.976Z,1.00
2022-11-05T15:20:28.686Z,1.00
2022-11-05T15:23:00.457Z,1.00
2022-11-05T15:25:52.761Z,1.10
2022-11-05T15:28:43.652Z,1.00
2022-11-05T15:31:13.462Z,2.40
2022-11-05T15:33:41.613Z,3.70
2022-11-05T15:36:25.180Z,4.00
2022-11-05T15:39:22.894Z,3.40
2022-11-05T15:41:39.005Z,5.40
2022-11-05T15:44:05.756Z,6.00
2022-11-05T15:46:32.623Z,7.90
2022-11-05T15:49:04.710Z,9.70
2022-11-05T15:51:31.311Z,10.50
2022-11-05T15:54:29.823Z,11.80
2022-11-05T15:56:52.011Z,14.20
2022-11-05T15:59:23.590Z,16.50
2022-11-05T16:02:15.533Z,18.80
2022-11-05T16:04:47.694Z,21.40
2022-11-05T16:07:14.911Z,24.70
2022-11-05T16:09:50.037Z,25.90
2022-11-05T16:12:19.671Z,28.40
2022-11-05T16:15:08.060Z,29.50
2022-11-05T16:17:37.750Z,33.00
2022-11-05T16:20:18.049Z,33.90
2022-11-05T16:22:50.050Z,36.10
2022-11-05T16:25:24.342Z,36.40
2022-11-05T16:27:51.062Z,37.20
2022-11-05T16:30:19.353Z,37.70
2022-11-05T16:32:47.365Z,38.60
2022-11-05T16:35:19.920Z,39.60
2022-11-05T16:37:51.875Z,36.70
2022-11-05T16:40:24.792Z,37.20
2022-11-05T16:42:55.311Z,37.80
2022-11-05T16:45:24.628Z,32.00
2022-11-05T16:47:51.879Z,41.00
2022-11-05T16:50:20.896Z,41.30
2022-11-05T16:52:47.926Z,38.90
2022-11-05T16:55:16.142Z,37.60
2022-11-05T16:57:45.404Z,39.70
2022-11-05T17:00:17.387Z,37.20
2022-11-05T17:02:45.494Z,37.30
2022-11-05T17:05:28.393Z,38.90
2022-11-05T17:07:55.935Z,38.80
2022-11-05T17:10:24.760Z,38.20
2022-11-05T17:12:52.216Z,36.60
2022-11-05T17:15:26.489Z,36.50
2022-11-05T17:17:54.363Z,37.50
2022-11-05T17:20:28.534Z,33.60
2022-11-05T17:22:56.452Z,31.50
2022-11-05T17:25:24.111Z,31.70
2022-11-05T17:27:51.246Z,30.40
2022-11-05T17:30:18.228Z,29.50
2022-11-05T17:32:44.988Z,29.80
2022-11-05T17:35:14.176Z,29.00
2022-11-05T17:37:41.547Z,29.40
2022-11-05T17:40:12.447Z,29.10
2022-11-05T17:42:39.203Z,29.40
2022-11-05T17:45:06.855Z,30.00
2022-11-05T17:47:35.079Z,30.30
2022-11-05T17:50:01.890Z,30.90
2022-11-05T17:52:29.035Z,30.50
2022-11-05T17:54:55.776Z,29.40
2022-11-05T17:57:22.505Z,30.50
2022-11-05T17:59:49.235Z,30.50
2022-11-05T18:02:16.100Z,28.90
2022-11-05T18:04:42.953Z,28.70
2022-11-05T18:07:10.532Z,27.10
2022-11-05T18:09:37.848Z,25.30
2022-11-05T18:12:05.204Z,22.80
2022-11-05T18:14:32.322Z,26.60
2022-11-05T18:17:00.293Z,19.60
2022-11-05T18:19:28.003Z,25.20
2022-11-05T18:21:55.546Z,24.60
2022-11-05T18:24:43.973Z,25.90
2022-11-05T18:27:10.812Z,26.20
2022-11-05T18:29:37.977Z,23.90
2022-11-05T18:32:05.115Z,24.50
2022-11-05T18:34:32.060Z,24.90
2022-11-05T18:36:58.743Z,18.80
2022-11-05T18:39:26.711Z,22.30
2022-11-05T18:41:53.438Z,19.50
2022-11-05T18:44:22.732Z,19.20
2022-11-05T18:46:58.028Z,18.60
2022-11-05T18:49:26.153Z,18.50
2022-11-05T18:51:52.961Z,17.80
2022-11-05T18:54:19.932Z,17.60
2022-11-05T18:56:46.658Z,19.50
2022-11-05T18:59:35.955Z,18.40
2022-11-05T19:02:03.107Z,20.00
2022-11-05T19:04:30.568Z,16.90
2022-11-05T19:07:03.121Z,17.90
2022-11-05T19:09:31.503Z,19.00
2022-11-05T19:11:58.318Z,19.60
2022-11-05T19:14:25.104Z,17.60
2022-11-05T19:16:51.782Z,17.70
2022-11-05T19:19:18.555Z,18.10
2022-11-05T19:21:45.726Z,18.10
2022-11-05T19:24:16.875Z,15.10
2022-11-05T19:26:44.239Z,21.00
2022-11-05T19:29:11.212Z,20.40
2022-11-05T19:31:38.945Z,19.90
2022-11-05T19:34:05.822Z,19.60
2022-11-05T19:36:33.776Z,19.50
2022-11-05T19:39:04.060Z,20.00
2022-11-05T19:41:30.940Z,19.20
2022-11-05T19:43:59.145Z,19.80
2022-11-05T19:46:26.254Z,20.70
2022-11-05T19:48:53.144Z,21.30
2022-11-05T19:51:22.926Z,20.60
2022-11-05T19:53:52.340Z,22.00
2022-11-05T19:56:21.345Z,22.40
2022-11-05T19:58:48.780Z,21.30
2022-11-05T20:01:17.044Z,21.60
2022-11-05T20:03:44.589Z,21.30
2022-11-05T20:06:17.040Z,22.70
2022-11-05T20:09:14.811Z,20.60
2022-11-05T20:11:31.715Z,21.80
2022-11-05T20:13:58.468Z,20.00
2022-11-05T20:16:32.175Z,20.40
2022-11-05T20:18:58.955Z,20.50
2022-11-05T20:21:25.796Z,20.20
2022-11-05T20:23:56.499Z,17.70
2022-11-05T20:26:23.678Z,19.90
2022-11-05T20:28:50.437Z,19.20
2022-11-05T20:31:17.920Z,19.30
2022-11-05T20:33:45.888Z,20.70
2022-11-05T20:36:16.030Z,21.00
2022-11-05T20:38:44.672Z,22.40
2022-11-05T20:41:13.007Z,21.30
2022-11-05T20:43:43.988Z,22.70
2022-11-05T20:46:15.130Z,24.20
2022-11-05T20:48:43.440Z,23.70
2022-11-05T20:51:13.024Z,24.20
2022-11-05T20:53:40.378Z,24.30
2022-11-05T20:56:10.439Z,23.20
2022-11-05T20:58:37.807Z,24.70
2022-11-05T21:01:05.669Z,25.10
2022-11-05T21:03:32.873Z,26.40
2022-11-05T21:06:04.417Z,25.80
2022-11-05T21:08:31.640Z,28.10
2022-11-05T21:10:58.992Z,27.10
2022-11-05T21:13:26.613Z,28.50
2022-11-05T21:15:56.160Z,28.10
2022-11-05T21:18:25.194Z,30.90
2022-11-05T21:20:52.022Z,31.80
2022-11-05T21:23:19.009Z,33.60
2022-11-05T21:25:46.278Z,37.00
2022-11-05T21:28:14.429Z,37.10
2022-11-05T21:30:44.934Z,38.80
2022-11-05T21:33:13.721Z,40.60
2022-11-05T21:35:44.560Z,42.10
2022-11-05T21:38:13.105Z,42.40
2022-11-05T21:40:40.616Z,42.10
2022-11-05T21:43:08.149Z,42.50
2022-11-05T21:45:34.902Z,42.30
2022-11-05T21:48:01.838Z,40.90
2022-11-05T21:50:47.354Z,41.20
2022-11-05T21:53:33.868Z,43.20
2022-11-05T21:56:23.503Z,44.60
2022-11-05T21:59:09.022Z,45.70
2022-11-05T22:01:35.859Z,46.00
2022-11-05T22:04:03.389Z,46.40
2022-11-05T22:06:33.225Z,47.50
2022-11-05T22:09:00.279Z,48.30
2022-11-05T22:11:26.954Z,49.50
2022-11-05T22:13:53.718Z,48.70
2022-11-05T22:16:20.535Z,48.40
2022-11-05T22:18:47.313Z,47.80
2022-11-05T22:21:18.833Z,49.50
2022-11-05T22:23:45.770Z,49.60
2022-11-05T22:26:12.566Z,48.80
2022-11-05T22:28:39.242Z,50.00
2022-11-05T22:31:13.503Z,49.60
2022-11-05T22:33:40.370Z,75.40
2022-11-05T22:36:07.651Z,51.00
2022-11-05T22:38:34.821Z,48.50
2022-11-05T22:41:13.567Z,51.20
2022-11-05T22:43:40.470Z,51.50
2022-11-05T22:46:11.154Z,51.60
2022-11-05T22:48:39.556Z,54.30
2022-11-05T22:51:15.111Z,52.70
2022-11-05T22:53:42.477Z,53.90
2022-11-05T22:56:13.902Z,55.10
2022-11-05T22:58:41.244Z,55.10
2022-11-05T23:01:11.673Z,55.20
2022-11-05T23:03:40.135Z,55.40
2022-11-05T23:06:43.090Z,55.50
2022-11-05T23:09:49.705Z,55.90
2022-11-05T23:12:28.488Z,55.30
2022-11-05T23:14:57.769Z,55.60
2022-11-05T23:17:48.090Z,57.20
2022-11-05T23:20:38.605Z,54.80
2022-11-05T23:23:28.349Z,56.10
2022-11-05T23:25:59.106Z,56.10
2022-11-05T23:28:26.288Z,56.50
2022-11-05T23:31:11.681Z,55.50
2022-11-05T23:33:38.372Z,56.60
2022-11-05T23:36:24.190Z,58.60
2022-11-05T23:38:50.945Z,55.10
2022-11-05T23:41:36.327Z,55.70
2022-11-05T23:44:22.035Z,55.90
2022-11-05T23:47:07.203Z,52.30
2022-11-05T23:49:33.959Z,54.00
2022-11-05T23:52:00.636Z,50.90
2022-11-05T23:54:27.609Z,48.90
2022-11-05T23:56:54.338Z,48.60
2022-11-05T23:59:21.133Z,48.90
